createdAt,value
2023-02-14T00:07:35.043Z,3.14
2023-02-14T00:27:37.884Z,3.00
2023-02-14T00:47:40.358Z,3.14
2023-02-14T01:07:42.755Z,3.14
2023-02-14T01:27:45.395Z,3.20
2023-02-14T01:47:47.807Z,2.94
2023-02-14T02:07:50.198Z,2.87
2023-02-14T02:27:52.665Z,2.86
2023-02-14T02:47:55.101Z,2.87
2023-02-14T03:07:57.494Z,2.99
2023-02-14T03:28:00.000Z,2.98
2023-02-14T03:48:02.476Z,2.85
2023-02-14T04:08:04.938Z,3.11
2023-02-14T04:28:07.358Z,3.28
2023-02-14T04:48:09.828Z,3.31
2023-02-14T05:08:12.374Z,3.32
2023-02-14T05:28:14.824Z,3.38
2023-02-14T05:48:17.931Z,3.46
2023-02-14T06:08:20.389Z,3.32
2023-02-14T06:28:22.915Z,3.13
2023-02-14T06:48:25.710Z,3.26
2023-02-14T07:08:28.128Z,3.33
2023-02-14T07:28:31.554Z,3.73
2023-02-14T07:48:35.533Z,3.80
2023-02-14T08:08:37.982Z,3.44
2023-02-14T08:28:40.445Z,3.65
2023-02-14T08:48:42.884Z,3.92
2023-02-14T09:08:45.378Z,4.47
2023-02-14T09:28:47.877Z,4.33
2023-02-14T09:48:50.364Z,4.88
2023-02-14T10:08:53.128Z,4.82
2023-02-14T10:28:55.540Z,4.88
2023-02-14T10:48:57.954Z,4.46
2023-02-14T11:09:00.417Z,4.93
2023-02-14T11:29:03.568Z,4.81
2023-02-14T11:49:06.384Z,4.93
2023-02-14T12:09:09.155Z,4.72
2023-02-14T12:29:15.868Z,5.25
2023-02-14T12:49:19.304Z,5.57
2023-02-14T13:09:21.768Z,5.24
2023-02-14T13:29:24.848Z,5.50
2023-02-14T13:49:28.949Z,5.33
2023-02-14T14:09:31.474Z,5.28
2023-02-14T14:29:34.759Z,4.84
2023-02-14T14:49:37.226Z,4.89
2023-02-14T15:29:47.619Z,4.49
2023-02-14T15:49:50.091Z,4.54
2023-02-14T16:09:52.651Z,4.29
2023-02-14T16:30:02.731Z,4.45
2023-02-14T16:50:05.490Z,4.17
2023-02-14T17:10:07.912Z,3.93
2023-02-14T17:30:10.730Z,4.09
2023-02-14T17:50:14.352Z,3.98
2023-02-14T18:10:16.849Z,4.15
2023-02-14T18:30:19.380Z,4.17
2023-02-14T18:50:21.844Z,4.14
2023-02-14T19:10:24.276Z,4.29
2023-02-14T19:30:26.828Z,4.21
2023-02-14T19:50:30.815Z,4.13
2023-02-14T20:10:33.355Z,4.21
2023-02-14T20:30:35.791Z,4.39
2023-02-14T20:50:38.286Z,4.12
2023-02-14T21:10:40.726Z,3.80
2023-02-14T21:30:43.595Z,3.80
2023-02-14T21:50:46.039Z,3.85
2023-02-14T22:10:48.517Z,3.99
2023-02-14T22:30:50.941Z,3.50
2023-02-14T22:50:53.721Z,3.81
2023-02-14T23:10:56.733Z,3.91
2023-02-14T23:30:59.213Z,3.86
2023-02-14T23:51:02.268Z,4.18
